createdAt,value
2022-10-01T00:02:07.461Z,101297.09
2022-10-01T00:04:37.195Z,101299.90
2022-10-01T00:07:08.978Z,101301.71
2022-10-01T00:09:36.467Z,101300.48
2022-10-01T00:12:06.793Z,101300.66
2022-10-01T00:14:36.655Z,101305.61
2022-10-01T00:17:04.084Z,101307.16
2022-10-01T00:19:31.460Z,101304.35
2022-10-01T00:21:59.132Z,101307.30
2022-10-01T00:24:26.751Z,101305.64
2022-10-01T00:26:54.146Z,101310.27
2022-10-01T00:29:21.686Z,101310.31
2022-10-01T00:31:49.261Z,101308.25
2022-10-01T00:34:16.765Z,101309.25
2022-10-01T00:36:44.271Z,101313.13
2022-10-01T00:39:12.240Z,101311.19
2022-10-01T00:41:40.555Z,101315.13
2022-10-01T00:44:37.994Z,101315.30
2022-10-01T00:47:21.611Z,101314.48
2022-10-01T00:49:50.828Z,101315.89
2022-10-01T00:52:24.308Z,101313.43
2022-10-01T00:55:08.200Z,101313.23
2022-10-01T00:57:35.662Z,101305.67
2022-10-01T01:00:08.819Z,101298.06
2022-10-01T01:02:36.830Z,101298.05
2022-10-01T01:05:06.053Z,101301.80
2022-10-01T01:07:33.940Z,101308.29
2022-10-01T01:10:03.666Z,101309.08
2022-10-01T01:13:01.339Z,101311.19
2022-10-01T01:15:51.261Z,101307.53
2022-10-01T01:19:03.207Z,101303.34
2022-10-01T01:21:40.627Z,101307.38
2022-10-01T01:24:50.121Z,101305.33
2022-10-01T01:27:31.107Z,101307.81
2022-10-01T01:30:08.230Z,101307.62
2022-10-01T01:32:50.504Z,101304.55
2022-10-01T01:35:37.468Z,101309.06
2022-10-01T01:38:10.005Z,101315.59
2022-10-01T01:40:39.109Z,101312.89
2022-10-01T01:43:11.342Z,101311.60
2022-10-01T01:45:39.634Z,101309.36
2022-10-01T01:48:09.482Z,101311.83
2022-10-01T01:50:55.126Z,101313.05
2022-10-01T01:53:22.655Z,101317.21
2022-10-01T01:55:50.318Z,101318.86
2022-10-01T01:58:19.025Z,101323.62
2022-10-01T02:00:51.826Z,101319.13
2022-10-01T02:03:22.388Z,101326.27
2022-10-01T02:06:19.379Z,101326.94
2022-10-01T02:08:59.079Z,101327.10
2022-10-01T02:11:39.072Z,101336.75
2022-10-01T02:14:52.814Z,101336.65
2022-10-01T02:17:52.077Z,101340.61
2022-10-01T02:20:35.981Z,101337.89
2022-10-01T02:23:09.694Z,101336.72
2022-10-01T02:25:48.178Z,101338.91
2022-10-01T02:28:21.331Z,101339.84
2022-10-01T02:30:51.839Z,101341.52
2022-10-01T02:33:25.228Z,101347.10
2022-10-01T02:35:53.616Z,101345.55
2022-10-01T02:38:23.310Z,101343.70
2022-10-01T02:40:55.467Z,101349.48
2022-10-01T02:43:30.996Z,101350.89
2022-10-01T02:46:05.185Z,101356.75
2022-10-01T02:48:32.775Z,101359.94
2022-10-01T02:51:47.951Z,101357.10
2022-10-01T02:54:50.655Z,101357.67
2022-10-01T02:57:24.119Z,101361.38
2022-10-01T02:59:51.810Z,101356.97
2022-10-01T03:02:20.513Z,101355.92
2022-10-01T03:04:48.382Z,101361.87
2022-10-01T03:07:17.655Z,101363.97
2022-10-01T03:09:44.999Z,101361.16
2022-10-01T03:12:12.452Z,101355.74
2022-10-01T03:14:39.747Z,101357.58
2022-10-01T03:17:07.853Z,101359.73
2022-10-01T03:19:35.261Z,101359.96
2022-10-01T03:22:02.751Z,101359.88
2022-10-01T03:24:30.169Z,101360.42
2022-10-01T03:26:57.813Z,101357.45
2022-10-01T03:29:26.823Z,101355.81
2022-10-01T03:31:54.796Z,101352.86
2022-10-01T03:34:22.471Z,101354.19
2022-10-01T03:36:51.782Z,101356.86
2022-10-01T03:39:19.931Z,101352.24
2022-10-01T03:41:47.427Z,101347.30
2022-10-01T03:44:14.864Z,101340.85
2022-10-01T03:46:42.355Z,101336.34
2022-10-01T03:49:10.352Z,101335.80
2022-10-01T03:51:39.119Z,101333.56
2022-10-01T03:54:08.321Z,101334.81
2022-10-01T03:56:35.943Z,101340.52
2022-10-01T03:59:03.800Z,101350.07
2022-10-01T04:01:31.489Z,101353.20
2022-10-01T04:03:59.319Z,101357.42
2022-10-01T04:06:26.841Z,101356.05
2022-10-01T04:08:54.237Z,101359.42
2022-10-01T04:11:21.639Z,101358.90
2022-10-01T04:13:48.861Z,101359.83
2022-10-01T04:16:16.306Z,101364.70
2022-10-01T04:18:43.867Z,101369.02
2022-10-01T04:21:12.429Z,101372.12
2022-10-01T04:23:40.120Z,101372.96
2022-10-01T04:26:07.861Z,101374.27
2022-10-01T04:28:35.551Z,101369.31
2022-10-01T04:31:22.326Z,101367.36
2022-10-01T04:33:49.918Z,101360.62
2022-10-01T04:36:17.426Z,101363.92
2022-10-01T04:38:44.874Z,101366.09
2022-10-01T04:41:14.061Z,101364.22
2022-10-01T04:43:41.643Z,101365.65
2022-10-01T04:46:10.177Z,101372.82
2022-10-01T04:48:37.469Z,101373.52
2022-10-01T04:51:05.373Z,101376.86
2022-10-01T04:53:32.998Z,101380.95
2022-10-01T04:56:00.591Z,101378.04
2022-10-01T04:58:27.972Z,101381.44
2022-10-01T05:00:58.500Z,101383.64
2022-10-01T05:03:29.474Z,101379.84
2022-10-01T05:05:57.165Z,101374.52
2022-10-01T05:08:24.484Z,101373.92
2022-10-01T05:10:52.709Z,101380.08
2022-10-01T05:13:20.160Z,101380.42
2022-10-01T05:15:51.772Z,101376.45
2022-10-01T05:18:19.315Z,101382.57
2022-10-01T05:20:46.890Z,101385.80
2022-10-01T05:23:14.412Z,101391.59
2022-10-01T05:25:46.402Z,101394.50
2022-10-01T05:28:21.171Z,101388.07
2022-10-01T05:30:52.944Z,101387.22
2022-10-01T05:33:20.222Z,101380.94
2022-10-01T05:35:47.504Z,101385.86
2022-10-01T05:38:14.904Z,101388.71
2022-10-01T05:40:45.942Z,101385.85
2022-10-01T05:43:14.282Z,101392.25
2022-10-01T05:45:42.657Z,101389.60
2022-10-01T05:48:11.612Z,101387.16
2022-10-01T05:50:40.376Z,101382.67
2022-10-01T05:53:10.100Z,101375.48
2022-10-01T05:55:37.618Z,101370.88
2022-10-01T05:58:10.236Z,101366.08
2022-10-01T06:00:39.502Z,101362.21
2022-10-01T06:03:07.589Z,101371.44
2022-10-01T06:05:36.246Z,101379.78
2022-10-01T06:08:09.332Z,101368.73
2022-10-01T06:10:37.925Z,101369.77
2022-10-01T06:13:06.342Z,101369.60
2022-10-01T06:15:37.149Z,101369.71
2022-10-01T06:18:06.968Z,101367.76
2022-10-01T06:20:35.029Z,101368.35
2022-10-01T06:23:05.399Z,101372.91
2022-10-01T06:25:34.651Z,101370.27
2022-10-01T06:28:02.275Z,101368.98
2022-10-01T06:30:33.851Z,101363.84
2022-10-01T06:33:06.544Z,101378.21
2022-10-01T06:35:35.894Z,101380.20
2022-10-01T06:38:03.395Z,101376.52
2022-10-01T06:40:33.042Z,101376.91
2022-10-01T06:43:04.436Z,101377.73
2022-10-01T06:45:32.092Z,101376.46
2022-10-01T06:48:03.564Z,101378.27
2022-10-01T06:50:32.601Z,101380.86
2022-10-01T06:53:01.771Z,101378.05
2022-10-01T06:55:33.545Z,101376.38
2022-10-01T06:58:15.492Z,101375.28
2022-10-01T07:00:43.631Z,101374.20
2022-10-01T07:03:20.609Z,101373.23
2022-10-01T07:05:49.922Z,101377.23
2022-10-01T07:08:18.192Z,101384.20
2022-10-01T07:10:46.094Z,101390.34
2022-10-01T07:13:19.783Z,101385.92
2022-10-01T07:15:47.507Z,101382.83
2022-10-01T07:18:17.504Z,101377.89
2022-10-01T07:20:44.960Z,101373.71
2022-10-01T07:23:14.743Z,101367.77
2022-10-01T07:25:43.130Z,101364.38
2022-10-01T07:28:18.139Z,101358.48
2022-10-01T07:31:02.533Z,101356.63
2022-10-01T07:33:29.973Z,101353.40
2022-10-01T07:36:01.674Z,101354.71
2022-10-01T07:38:29.458Z,101353.17
2022-10-01T07:40:58.604Z,101348.27
2022-10-01T07:43:25.944Z,101342.60
2022-10-01T07:45:55.436Z,101340.45
2022-10-01T07:48:22.816Z,101336.55
2022-10-01T07:50:50.406Z,101332.41
2022-10-01T07:53:18.207Z,101323.35
2022-10-01T07:55:46.085Z,101325.55
2022-10-01T07:58:13.688Z,101325.73
2022-10-01T08:00:42.948Z,101325.82
2022-10-01T08:03:13.515Z,101316.73
2022-10-01T08:05:42.750Z,101316.18
2022-10-01T08:08:10.164Z,101313.80
2022-10-01T08:10:38.525Z,101312.35
2022-10-01T08:13:15.065Z,101300.91
2022-10-01T08:15:45.339Z,101299.77
2022-10-01T08:18:13.519Z,101300.39
2022-10-01T08:20:40.947Z,101299.11
2022-10-01T08:23:14.391Z,101292.70
2022-10-01T08:25:42.966Z,101283.11
2022-10-01T08:28:12.121Z,101277.88
2022-10-01T08:30:42.040Z,101280.50
2022-10-01T08:33:14.030Z,101280.25
2022-10-01T08:35:42.995Z,101277.11
2022-10-01T08:38:11.584Z,101271.57
2022-10-01T08:40:50.368Z,101266.95
2022-10-01T08:43:33.794Z,101263.52
2022-10-01T08:46:05.590Z,101257.86
2022-10-01T08:48:57.363Z,101252.64
2022-10-01T08:51:56.446Z,101246.84
2022-10-01T08:54:48.381Z,101244.01
2022-10-01T08:57:28.430Z,101238.13
2022-10-01T08:59:59.052Z,101236.41
2022-10-01T09:02:37.659Z,101236.25
2022-10-01T09:05:27.164Z,101235.29
2022-10-01T09:08:09.981Z,101228.42
2022-10-01T09:11:04.556Z,101223.95
2022-10-01T09:13:50.278Z,101219.95
2022-10-01T09:16:17.993Z,101219.35
2022-10-01T09:19:31.745Z,101213.03
2022-10-01T09:22:02.960Z,101206.86
2022-10-01T09:25:01.071Z,101210.00
2022-10-01T09:27:28.951Z,101206.34
2022-10-01T09:30:12.256Z,101198.76
2022-10-01T09:33:05.383Z,101187.89
2022-10-01T09:35:45.189Z,101181.66
2022-10-01T09:38:40.036Z,101182.35
2022-10-01T09:41:10.207Z,101183.16
2022-10-01T09:43:39.661Z,101182.13
2022-10-01T09:46:15.165Z,101177.29
2022-10-01T09:48:54.468Z,101173.71
2022-10-01T09:51:35.770Z,101172.98
2022-10-01T09:54:42.669Z,101166.31
2022-10-01T09:57:16.235Z,101160.46
2022-10-01T10:00:20.414Z,101155.61
2022-10-01T10:02:54.666Z,101151.58
2022-10-01T10:05:30.266Z,101148.64
2022-10-01T10:08:31.642Z,101146.84
2022-10-01T10:11:07.869Z,101146.66
2022-10-01T10:13:50.220Z,101137.21
2022-10-01T10:16:26.373Z,101128.09
2022-10-01T10:19:01.857Z,101126.52
2022-10-01T10:21:37.298Z,101121.86
2022-10-01T10:24:18.692Z,101116.61
2022-10-01T10:26:55.019Z,101110.33
2022-10-01T10:29:36.930Z,101104.98
2022-10-01T10:32:26.950Z,101098.73
2022-10-01T10:35:03.128Z,101096.16
2022-10-01T10:37:37.186Z,101100.30
2022-10-01T10:40:07.820Z,101095.21
2022-10-01T10:42:38.409Z,101096.31
2022-10-01T10:45:14.356Z,101088.31
2022-10-01T10:47:47.007Z,101087.30
2022-10-01T10:50:34.515Z,101084.35
2022-10-01T10:53:22.769Z,101080.10
2022-10-01T10:56:00.609Z,101080.48
2022-10-01T10:58:39.901Z,101075.55
2022-10-01T11:01:13.244Z,101065.68
2022-10-01T11:03:52.809Z,101064.49
2022-10-01T11:06:21.018Z,101064.19
2022-10-01T11:08:58.649Z,101057.59
2022-10-01T11:11:34.935Z,101057.11
2022-10-01T11:14:41.755Z,101053.55
2022-10-01T11:17:59.086Z,101050.77
2022-10-01T11:21:09.247Z,101050.83
2022-10-01T11:23:48.991Z,101046.79
2022-10-01T11:26:53.601Z,101039.33
2022-10-01T11:29:46.000Z,101038.65
2022-10-01T11:32:34.055Z,101026.72
2022-10-01T11:35:23.038Z,101019.45
2022-10-01T11:38:06.726Z,101011.48
2022-10-01T11:40:41.138Z,101004.61
2022-10-01T11:43:38.607Z,101003.45
2022-10-01T11:46:35.190Z,101003.98
2022-10-01T11:49:34.849Z,100999.26
2022-10-01T11:52:32.319Z,100997.77
2022-10-01T11:55:35.126Z,100993.08
2022-10-01T11:58:54.577Z,100988.73
2022-10-01T12:01:24.805Z,100992.64
2022-10-01T12:03:52.066Z,100994.75
2022-10-01T12:06:27.537Z,100996.63
2022-10-01T12:09:31.990Z,100998.33
2022-10-01T12:12:22.736Z,100999.77
2022-10-01T12:15:21.205Z,100999.88
2022-10-01T12:18:07.999Z,100988.56
2022-10-01T12:20:41.921Z,100977.76
2022-10-01T12:23:18.763Z,100978.38
2022-10-01T12:26:04.761Z,100979.16
2022-10-01T12:28:53.614Z,100974.88
2022-10-01T12:31:41.609Z,100964.85
2022-10-01T12:35:10.682Z,100963.64
2022-10-01T12:38:34.296Z,100966.61
2022-10-01T12:41:32.464Z,100963.05
2022-10-01T12:44:26.623Z,100953.78
2022-10-01T12:47:49.452Z,100949.79
2022-10-01T12:50:35.261Z,100946.68
2022-10-01T12:53:25.910Z,100940.07
2022-10-01T12:56:10.459Z,100935.31
2022-10-01T12:59:05.621Z,100937.50
2022-10-01T13:01:46.414Z,100935.48
2022-10-01T13:04:41.541Z,100932.64
2022-10-01T13:07:36.956Z,100926.92
2022-10-01T13:10:17.294Z,100918.33
2022-10-01T13:13:14.839Z,100913.38
2022-10-01T13:15:49.149Z,100912.16
2022-10-01T13:18:51.944Z,100901.36
2022-10-01T13:21:29.136Z,100891.92
2022-10-01T13:24:12.082Z,100892.23
2022-10-01T13:26:42.258Z,100888.09
2022-10-01T13:29:36.011Z,100883.81
2022-10-01T13:32:28.609Z,100884.09
2022-10-01T13:34:58.246Z,100873.69
2022-10-01T13:37:38.725Z,100871.29
2022-10-01T13:40:34.911Z,100866.02
2022-10-01T13:43:12.411Z,100866.62
2022-10-01T13:45:43.112Z,100862.94
2022-10-01T13:48:10.544Z,100855.89
2022-10-01T13:50:57.170Z,100850.48
2022-10-01T13:53:26.506Z,100840.79
2022-10-01T13:55:54.444Z,100834.66
2022-10-01T13:58:45.814Z,100832.09
2022-10-01T14:01:20.020Z,100832.09
2022-10-01T14:04:08.787Z,100833.02
2022-10-01T14:06:36.650Z,100833.30
2022-10-01T14:09:22.750Z,100835.81
2022-10-01T14:12:23.117Z,100830.98
2022-10-01T14:15:17.733Z,100823.55
2022-10-01T14:17:49.870Z,100813.77
2022-10-01T14:20:24.513Z,100809.89
2022-10-01T14:23:08.831Z,100802.66
2022-10-01T14:25:54.032Z,100795.75
2022-10-01T14:28:31.582Z,100795.95
2022-10-01T14:31:35.988Z,100789.45
2022-10-01T14:34:47.220Z,100788.61
2022-10-01T14:37:17.603Z,100778.85
2022-10-01T14:39:46.009Z,100769.27
2022-10-01T14:42:17.325Z,100765.08
2022-10-01T14:44:46.848Z,100761.86
2022-10-01T14:47:24.679Z,100756.75
2022-10-01T14:49:55.485Z,100758.08
2022-10-01T14:52:29.874Z,100755.89
2022-10-01T14:55:01.621Z,100754.86
2022-10-01T14:57:41.827Z,100754.50
2022-10-01T15:00:19.513Z,100749.66
2022-10-01T15:02:50.283Z,100747.56
2022-10-01T15:05:27.052Z,100743.45
2022-10-01T15:07:55.065Z,100738.03
2022-10-01T15:10:29.688Z,100730.73
2022-10-01T15:12:57.175Z,100728.16
2022-10-01T15:15:35.373Z,100731.05
2022-10-01T15:18:04.336Z,100740.73
2022-10-01T15:20:31.868Z,100741.05
2022-10-01T15:23:01.603Z,100736.50
2022-10-01T15:25:29.944Z,100732.36
2022-10-01T15:27:57.614Z,100735.25
2022-10-01T15:30:27.600Z,100734.02
2022-10-01T15:32:55.656Z,100727.88
2022-10-01T15:35:23.700Z,100722.06
2022-10-01T15:37:52.357Z,100717.48
2022-10-01T15:40:34.917Z,100718.80
2022-10-01T15:43:08.471Z,100717.14
2022-10-01T15:45:40.262Z,100715.68
2022-10-01T15:48:28.894Z,100715.27
2022-10-01T15:51:03.455Z,100714.26
2022-10-01T15:53:32.601Z,100712.08
2022-10-01T15:56:13.942Z,100706.81
2022-10-01T15:58:55.607Z,100697.10
2022-10-01T16:01:28.149Z,100691.81
2022-10-01T16:04:08.120Z,100685.20
2022-10-01T16:06:46.782Z,100678.04
2022-10-01T16:09:25.194Z,100674.48
2022-10-01T16:12:10.518Z,100671.83
2022-10-01T16:14:43.580Z,100676.16
2022-10-01T16:17:16.991Z,100671.86
2022-10-01T16:19:49.830Z,100666.32
2022-10-01T16:22:18.287Z,100660.88
2022-10-01T16:24:57.296Z,100658.87
2022-10-01T16:27:44.090Z,100655.20
2022-10-01T16:30:26.700Z,100653.31
2022-10-01T16:32:54.866Z,100651.21
2022-10-01T16:35:28.833Z,100649.52
2022-10-01T16:37:57.604Z,100641.90
2022-10-01T16:40:39.920Z,100639.27
2022-10-01T16:43:09.706Z,100631.18
2022-10-01T16:45:39.946Z,100620.01
2022-10-01T16:48:17.391Z,100618.50
2022-10-01T16:50:48.227Z,100614.13
2022-10-01T16:53:16.734Z,100608.20
2022-10-01T16:55:45.501Z,100603.41
2022-10-01T16:58:13.245Z,100597.38
2022-10-01T17:00:43.922Z,100595.55
2022-10-01T17:03:15.259Z,100594.34
2022-10-01T17:05:43.476Z,100589.54
2022-10-01T17:08:11.563Z,100584.23
2022-10-01T17:10:43.526Z,100582.35
2022-10-01T17:13:12.205Z,100580.92
2022-10-01T17:15:40.537Z,100583.88
2022-10-01T17:18:13.482Z,100582.71
2022-10-01T17:21:00.689Z,100582.54
2022-10-01T17:23:29.680Z,100578.48
2022-10-01T17:25:57.480Z,100577.08
2022-10-01T17:28:25.249Z,100567.61
2022-10-01T17:30:52.707Z,100560.45
2022-10-01T17:33:20.481Z,100560.49
2022-10-01T17:35:55.265Z,100554.00
2022-10-01T17:38:23.228Z,100551.45
2022-10-01T17:40:55.698Z,100549.63
2022-10-01T17:43:24.048Z,100544.41
2022-10-01T17:46:01.868Z,100544.88
2022-10-01T17:48:29.941Z,100548.63
2022-10-01T17:51:06.816Z,100548.67
2022-10-01T17:53:41.909Z,100545.27
2022-10-01T17:56:17.343Z,100540.16
2022-10-01T17:58:46.268Z,100532.94
2022-10-01T18:01:19.289Z,100530.63
2022-10-01T18:03:46.692Z,100522.79
2022-10-01T18:06:15.746Z,100520.16
2022-10-01T18:08:58.682Z,100514.60
2022-10-01T18:11:30.718Z,100511.01
2022-10-01T18:13:58.524Z,100502.73
2022-10-01T18:16:26.959Z,100499.03
2022-10-01T18:21:47.876Z,100492.35
2022-10-01T18:24:16.475Z,100492.36
2022-10-01T18:26:45.246Z,100484.98
2022-10-01T18:29:22.635Z,100475.79
2022-10-01T18:32:18.271Z,100473.25
2022-10-01T18:34:54.330Z,100471.98
2022-10-01T18:37:46.208Z,100471.66
2022-10-01T18:40:26.818Z,100467.88
2022-10-01T18:43:17.168Z,100459.71
2022-10-01T18:46:19.329Z,100455.37
2022-10-01T18:49:09.870Z,100450.27
2022-10-01T18:52:11.588Z,100448.35
2022-10-01T18:55:32.340Z,100438.76
2022-10-01T18:59:00.454Z,100429.78
2022-10-01T19:01:30.165Z,100420.52
2022-10-01T19:04:15.763Z,100421.73
2022-10-01T19:06:49.908Z,100417.83
2022-10-01T19:09:32.133Z,100409.75
2022-10-01T19:12:22.747Z,100406.23
2022-10-01T19:15:37.507Z,100404.05
2022-10-01T19:18:34.534Z,100399.91
2022-10-01T19:21:23.211Z,100394.28
2022-10-01T19:24:13.788Z,100382.40
2022-10-01T19:26:54.037Z,100371.98
2022-10-01T19:30:03.683Z,100358.59
2022-10-01T19:32:42.915Z,100358.63
2022-10-01T19:35:37.680Z,100353.19
2022-10-01T19:38:40.001Z,100345.33
2022-10-01T19:41:32.043Z,100338.56
2022-10-01T19:44:15.621Z,100335.39
2022-10-01T19:46:46.817Z,100337.75
2022-10-01T19:49:34.342Z,100328.32
2022-10-01T19:52:13.530Z,100324.67
2022-10-01T19:54:47.057Z,100319.30
2022-10-01T19:57:21.316Z,100315.98
2022-10-01T19:59:54.628Z,100308.65
2022-10-01T20:02:35.024Z,100306.41
2022-10-01T20:05:14.886Z,100308.89
2022-10-01T20:08:16.014Z,100305.29
2022-10-01T20:11:09.846Z,100299.48
2022-10-01T20:14:51.754Z,100302.88
2022-10-01T20:18:12.400Z,100295.70
2022-10-01T20:20:57.832Z,100288.86
2022-10-01T20:23:57.954Z,100277.11
2022-10-01T20:26:46.446Z,100271.95
2022-10-01T20:29:37.771Z,100266.02
2022-10-01T20:32:29.828Z,100258.11
2022-10-01T20:35:26.138Z,100253.40
2022-10-01T20:38:14.030Z,100255.80
2022-10-01T20:40:55.541Z,100259.15
2022-10-01T20:43:48.874Z,100260.76
2022-10-01T20:46:38.676Z,100258.25
2022-10-01T20:49:38.961Z,100256.95
2022-10-01T20:52:24.765Z,100251.39
2022-10-01T20:55:00.260Z,100247.54
2022-10-01T20:58:06.805Z,100242.66
2022-10-01T21:00:37.940Z,100235.38
2022-10-01T21:03:10.562Z,100227.16
2022-10-01T21:05:46.964Z,100227.49
2022-10-01T21:08:38.931Z,100227.37
2022-10-01T21:11:48.912Z,100228.70
2022-10-01T21:14:34.337Z,100220.52
2022-10-01T21:17:33.289Z,100213.27
2022-10-01T21:20:27.962Z,100217.50
2022-10-01T21:23:14.166Z,100214.67
2022-10-01T21:26:24.169Z,100219.09
2022-10-01T21:29:15.280Z,100207.79
2022-10-01T21:31:57.750Z,100196.80
2022-10-01T21:34:52.087Z,100192.64
2022-10-01T21:37:48.647Z,100196.48
2022-10-01T21:41:32.265Z,100199.88
2022-10-01T21:44:36.441Z,100197.13
2022-10-01T21:47:41.172Z,100197.48
2022-10-01T21:50:48.928Z,100197.92
2022-10-01T21:54:03.217Z,100196.95
2022-10-01T21:56:55.204Z,100197.95
2022-10-01T21:59:27.655Z,100200.08
2022-10-01T22:02:07.926Z,100204.41
2022-10-01T22:04:44.145Z,100206.48
2022-10-01T22:07:25.157Z,100206.52
2022-10-01T22:10:08.312Z,100211.93
2022-10-01T22:12:40.099Z,100212.04
2022-10-01T22:15:36.538Z,100218.40
2022-10-01T22:18:06.871Z,100225.17
2022-10-01T22:20:34.684Z,100229.92
2022-10-01T22:23:08.903Z,100236.89
2022-10-01T22:25:54.529Z,100262.04
2022-10-01T22:28:36.241Z,100286.52
2022-10-01T22:31:06.616Z,100294.98
2022-10-01T22:33:40.318Z,100301.33
2022-10-01T22:36:29.913Z,100300.73
2022-10-01T22:39:07.774Z,100285.14
2022-10-01T22:41:47.461Z,100280.87
2022-10-01T22:44:18.874Z,100276.04
2022-10-01T22:47:18.526Z,100284.05
2022-10-01T22:50:22.759Z,100280.27
2022-10-01T22:53:08.454Z,100275.08
2022-10-01T22:55:56.762Z,100272.62
2022-10-01T22:58:57.469Z,100266.75
2022-10-01T23:02:00.716Z,100252.23
2022-10-01T23:05:15.408Z,100234.61
2022-10-01T23:08:11.999Z,100227.03
2022-10-01T23:10:59.955Z,100227.61
2022-10-01T23:13:49.772Z,100213.11
2022-10-01T23:16:42.565Z,100193.95
2022-10-01T23:19:23.157Z,100189.02
2022-10-01T23:22:28.895Z,100192.70
2022-10-01T23:25:43.999Z,100195.40
2022-10-01T23:28:39.113Z,100190.85
2022-10-01T23:31:12.336Z,100185.25
2022-10-01T23:33:50.994Z,100179.36
2022-10-01T23:36:44.883Z,100174.06
2022-10-01T23:39:41.160Z,100174.58
2022-10-01T23:42:19.828Z,100184.65
2022-10-01T23:45:05.184Z,100193.65
2022-10-01T23:48:13.307Z,100197.75
2022-10-01T23:51:03.432Z,100199.78
2022-10-01T23:53:33.038Z,100195.86
2022-10-01T23:56:37.808Z,100189.84
2022-10-01T23:59:33.271Z,100176.11
